createdAt,value
2019-04-22T00:01:08.317Z,13.30
2019-04-22T00:04:01.315Z,13.20
2019-04-22T00:07:04.299Z,13.20
2019-04-22T00:10:04.821Z,13.20
2019-04-22T00:12:53.113Z,13.20
2019-04-22T00:15:33.658Z,13.20
2019-04-22T00:18:35.765Z,13.20
2019-04-22T00:21:19.830Z,13.20
2019-04-22T00:24:13.721Z,13.20
2019-04-22T00:26:57.097Z,13.20
2019-04-22T00:29:59.661Z,13.10
2019-04-22T00:32:39.721Z,13.20
2019-04-22T00:35:29.275Z,13.10
2019-04-22T00:38:28.422Z,13.10
2019-04-22T00:41:14.942Z,13.10
2019-04-22T00:44:02.846Z,13.10
2019-04-22T00:46:55.750Z,13.10
2019-04-22T00:50:10.906Z,13.00
2019-04-22T00:52:32.409Z,13.00
2019-04-22T00:55:23.078Z,12.90
2019-04-22T00:58:14.201Z,12.90
2019-04-22T01:01:00.145Z,13.00
2019-04-22T01:03:52.475Z,13.00
2019-04-22T01:06:35.531Z,13.00
2019-04-22T01:09:25.102Z,13.00
2019-04-22T01:12:13.499Z,13.00
2019-04-22T01:15:07.333Z,12.90
2019-04-22T01:17:51.078Z,12.90
2019-04-22T01:23:28.239Z,12.90
2019-04-22T01:26:21.537Z,12.90
2019-04-22T01:29:09.755Z,12.90
2019-04-22T01:31:47.402Z,12.90
2019-04-22T01:34:49.904Z,12.90
2019-04-22T01:37:41.619Z,12.90
2019-04-22T01:40:39.087Z,12.90
2019-04-22T01:43:33.627Z,12.90
2019-04-22T01:46:24.999Z,12.90
2019-04-22T01:49:10.358Z,12.90
2019-04-22T01:52:11.407Z,13.00
2019-04-22T01:54:48.533Z,12.90
2019-04-22T01:57:39.478Z,12.90
2019-04-22T02:00:27.385Z,12.90
2019-04-22T02:03:17.322Z,12.90
2019-04-22T02:06:07.206Z,12.90
2019-04-22T02:09:17.411Z,12.80
2019-04-22T02:12:00.503Z,12.80
2019-04-22T02:14:39.333Z,12.70
2019-04-22T02:17:31.493Z,12.70
2019-04-22T02:20:31.102Z,12.70
2019-04-22T02:23:30.272Z,12.70
2019-04-22T02:28:53.719Z,12.50
2019-04-22T02:31:56.457Z,12.50
2019-04-22T02:34:39.619Z,12.50
2019-04-22T02:37:36.058Z,12.50
2019-04-22T02:40:24.628Z,12.50
2019-04-22T02:43:19.240Z,12.40
2019-04-22T02:46:18.430Z,12.40
2019-04-22T02:51:47.443Z,12.30
2019-04-22T02:57:22.761Z,12.40
2019-04-22T03:08:43.322Z,12.30
2019-04-22T03:16:57.255Z,12.20
2019-04-22T03:28:33.103Z,12.00
2019-04-22T03:31:49.266Z,12.00
2019-04-22T03:40:07.296Z,12.00
2019-04-22T03:45:31.984Z,11.90
2019-04-22T03:48:28.774Z,11.90
2019-04-22T03:51:43.394Z,11.90
2019-04-22T03:54:21.338Z,11.90
2019-04-22T04:05:38.490Z,11.80
2019-04-22T04:08:22.459Z,11.80
2019-04-22T04:11:07.058Z,11.80
2019-04-22T04:14:12.331Z,11.80
2019-04-22T04:16:56.448Z,11.80
2019-04-22T04:19:48.197Z,11.80
2019-04-22T04:22:41.137Z,11.80
2019-04-22T04:31:04.862Z,11.80
2019-04-22T04:36:42.210Z,11.70
2019-04-22T04:39:34.926Z,11.70
2019-04-22T04:47:57.839Z,11.60
2019-04-22T04:51:04.644Z,11.50
2019-04-22T04:53:33.714Z,11.40
2019-04-22T04:56:35.891Z,11.30
2019-04-22T04:59:28.138Z,11.30
2019-04-22T05:02:12.315Z,11.40
2019-04-22T05:05:08.309Z,11.50
2019-04-22T05:10:53.494Z,11.40
2019-04-22T05:13:26.070Z,11.50
2019-04-22T05:19:07.864Z,11.70
2019-04-22T05:21:53.113Z,11.80
2019-04-22T05:24:40.530Z,11.80
2019-04-22T05:33:01.581Z,12.10
2019-04-22T05:35:56.354Z,12.10
2019-04-22T05:38:49.812Z,12.20
2019-04-22T05:41:36.445Z,12.20
2019-04-22T05:44:22.310Z,12.30
2019-04-22T05:47:14.675Z,12.30
2019-04-22T05:50:02.377Z,12.40
2019-04-22T05:55:47.928Z,12.50
2019-04-22T05:58:39.724Z,12.60
2019-04-22T06:04:19.772Z,12.70
2019-04-22T06:07:02.081Z,12.80
2019-04-22T06:10:02.511Z,12.80
2019-04-22T06:12:41.757Z,12.90
2019-04-22T06:15:34.433Z,13.00
2019-04-22T06:18:27.079Z,13.00
2019-04-22T06:21:22.427Z,13.10
2019-04-22T06:24:10.590Z,13.10
2019-04-22T06:27:01.630Z,13.20
2019-04-22T06:29:41.457Z,13.30
2019-04-22T06:32:31.391Z,13.40
2019-04-22T06:35:34.519Z,13.40
2019-04-22T06:41:10.074Z,13.70
2019-04-22T06:43:58.669Z,13.80
2019-04-22T06:46:43.311Z,13.90
2019-04-22T06:52:18.271Z,14.10
2019-04-22T06:55:28.686Z,14.30
2019-04-22T06:57:58.199Z,14.50
2019-04-22T07:00:44.449Z,14.60
2019-04-22T07:03:53.668Z,14.60
2019-04-22T07:06:49.905Z,14.80
2019-04-22T07:12:11.683Z,14.90
2019-04-22T07:15:01.639Z,14.90
2019-04-22T07:20:48.274Z,15.00
2019-04-22T07:23:38.608Z,15.10
2019-04-22T07:26:23.073Z,15.20
2019-04-22T07:29:07.464Z,15.30
2019-04-22T07:32:00.265Z,15.30
2019-04-22T07:34:52.346Z,15.30
2019-04-22T07:40:40.048Z,15.50
2019-04-22T07:43:27.937Z,15.70
2019-04-22T07:46:13.588Z,15.80
2019-04-22T07:49:02.333Z,16.00
2019-04-22T07:51:50.130Z,16.10
2019-04-22T07:54:41.640Z,16.40
2019-04-22T07:57:47.161Z,16.50
2019-04-22T08:00:28.043Z,16.50
2019-04-22T08:03:12.229Z,16.60
2019-04-22T08:06:07.973Z,16.40
2019-04-22T08:08:53.586Z,16.40
2019-04-22T08:14:28.384Z,16.50
2019-04-22T08:17:52.092Z,16.60
2019-04-22T08:20:09.230Z,16.90
2019-04-22T08:23:05.980Z,17.20
2019-04-22T08:25:49.486Z,17.50
2019-04-22T08:28:40.457Z,17.80
2019-04-22T08:31:31.737Z,18.10
2019-04-22T08:37:35.431Z,18.40
2019-04-22T08:40:03.436Z,18.60
2019-04-22T08:42:53.536Z,18.70
2019-04-22T08:45:40.126Z,18.80
2019-04-22T08:48:22.800Z,18.80
2019-04-22T08:51:13.599Z,18.90
2019-04-22T08:59:43.278Z,19.10
2019-04-22T09:02:32.466Z,19.20
2019-04-22T09:05:39.086Z,19.30
2019-04-22T09:08:15.653Z,19.40
2019-04-22T09:11:03.633Z,19.40
2019-04-22T09:19:28.490Z,19.60
2019-04-22T09:22:17.272Z,19.70
2019-04-22T09:25:08.038Z,19.80
2019-04-22T09:27:57.197Z,19.90
2019-04-22T09:30:55.568Z,19.90
2019-04-22T09:33:37.127Z,20.00
2019-04-22T09:39:28.301Z,20.20
2019-04-22T09:42:24.761Z,20.30
2019-04-22T09:45:10.178Z,20.50
2019-04-22T09:47:56.831Z,20.60
2019-04-22T09:50:43.201Z,20.60
2019-04-22T09:53:29.774Z,20.70
2019-04-22T09:56:17.631Z,20.80
2019-04-22T09:59:07.716Z,21.00
2019-04-22T10:02:13.387Z,21.10
2019-04-22T10:04:55.463Z,21.10
2019-04-22T10:07:54.477Z,21.30
2019-04-22T10:10:29.968Z,21.40
2019-04-22T10:13:23.356Z,21.40
2019-04-22T10:16:10.809Z,21.50
2019-04-22T10:18:59.459Z,21.60
2019-04-22T10:24:33.061Z,21.70
2019-04-22T10:27:29.263Z,21.70
2019-04-22T10:30:13.010Z,21.80
2019-04-22T10:33:02.520Z,21.90
2019-04-22T10:35:30.677Z,22.20
2019-04-22T10:38:18.487Z,22.20
2019-04-22T10:41:06.542Z,22.20
2019-04-22T10:43:55.198Z,22.30
2019-04-22T10:46:44.273Z,22.50
2019-04-22T10:49:34.547Z,22.70
2019-04-22T10:52:23.693Z,22.70
2019-04-22T10:55:13.776Z,22.80
2019-04-22T10:58:02.804Z,23.00
2019-04-22T11:00:52.341Z,23.10
2019-04-22T11:03:45.505Z,23.20
2019-04-22T11:06:42.951Z,23.30
2019-04-22T11:09:28.935Z,23.30
2019-04-22T11:12:22.844Z,23.40
2019-04-22T11:15:09.732Z,23.30
2019-04-22T11:17:57.792Z,23.30
2019-04-22T11:20:45.714Z,23.50
2019-04-22T11:23:40.750Z,23.70
2019-04-22T11:26:29.941Z,23.80
2019-04-22T11:29:19.523Z,23.90
2019-04-22T11:32:08.528Z,24.00
2019-04-22T11:34:58.064Z,24.10
2019-04-22T11:37:48.546Z,24.20
2019-04-22T11:40:40.359Z,24.20
2019-04-22T11:43:28.346Z,24.30
2019-04-22T11:46:17.654Z,24.40
2019-04-22T11:49:07.832Z,24.50
2019-04-22T11:51:58.873Z,24.50
2019-04-22T11:54:48.510Z,24.40
2019-04-22T11:57:37.171Z,24.30
2019-04-22T12:00:31.007Z,24.40
2019-04-22T12:03:18.993Z,24.60
2019-04-22T12:06:08.272Z,24.70
2019-04-22T12:08:57.574Z,24.80
2019-04-22T12:11:46.898Z,24.90
2019-04-22T12:14:36.216Z,24.90
2019-04-22T12:17:26.508Z,25.00
2019-04-22T12:20:18.403Z,24.90
2019-04-22T12:23:07.386Z,25.00
2019-04-22T12:26:03.307Z,25.10
2019-04-22T12:28:46.725Z,25.20
2019-04-22T12:31:35.714Z,25.30
2019-04-22T12:34:23.922Z,25.30
2019-04-22T12:37:14.901Z,25.10
2019-04-22T12:40:06.524Z,25.20
2019-04-22T12:42:55.456Z,25.40
2019-04-22T12:45:44.745Z,25.50
2019-04-22T12:48:33.013Z,25.30
2019-04-22T12:51:21.131Z,25.30
2019-04-22T12:54:09.066Z,25.30
2019-04-22T12:56:57.745Z,25.30
2019-04-22T12:59:45.705Z,25.40
2019-04-22T13:02:34.492Z,25.30
2019-04-22T13:05:25.016Z,25.20
2019-04-22T13:08:13.942Z,25.10
2019-04-22T13:11:08.748Z,25.40
2019-04-22T13:13:52.502Z,25.50
2019-04-22T13:16:40.911Z,25.50
2019-04-22T13:19:30.172Z,25.50
2019-04-22T13:22:19.046Z,25.60
2019-04-22T13:25:12.453Z,25.70
2019-04-22T13:28:01.018Z,25.80
2019-04-22T13:30:50.551Z,25.90
2019-04-22T13:33:39.191Z,25.90
2019-04-22T13:36:30.271Z,25.90
2019-04-22T13:39:18.706Z,25.80
2019-04-22T13:42:12.512Z,25.60
2019-04-22T13:44:58.104Z,25.50
2019-04-22T13:51:11.030Z,25.60
2019-04-22T13:54:14.458Z,25.70
2019-04-22T13:54:47.207Z,25.60
2019-04-22T13:56:37.344Z,25.60
2019-04-22T13:59:17.659Z,25.70
2019-04-22T14:02:12.744Z,25.70
2019-04-22T14:05:01.082Z,25.70
2019-04-22T14:07:52.054Z,25.80
2019-04-22T14:10:40.462Z,25.90
2019-04-22T14:13:29.951Z,25.90
2019-04-22T14:16:19.532Z,26.10
2019-04-22T14:19:07.920Z,26.10
2019-04-22T14:21:58.067Z,26.20
2019-04-22T14:24:46.872Z,26.20
2019-04-22T14:27:47.541Z,26.30
2019-04-22T14:30:26.318Z,26.50
2019-04-22T14:33:16.082Z,26.50
2019-04-22T14:36:05.056Z,26.50
2019-04-22T14:38:54.405Z,26.50
2019-04-22T14:41:55.973Z,26.50
2019-04-22T14:47:51.128Z,26.70
2019-04-22T14:50:35.535Z,26.70
2019-04-22T14:53:29.386Z,26.60
2019-04-22T14:55:54.782Z,26.60
2019-04-22T14:58:42.834Z,26.50
2019-04-22T15:01:30.918Z,26.60
2019-04-22T15:04:19.619Z,26.60
2019-04-22T15:07:08.857Z,26.60
2019-04-22T15:09:57.782Z,26.80
2019-04-22T15:12:49.802Z,27.10
2019-04-22T15:15:43.324Z,27.10
2019-04-22T15:18:28.417Z,27.20
2019-04-22T15:21:18.663Z,27.10
2019-04-22T15:24:26.867Z,27.10
2019-04-22T15:27:16.242Z,27.20
2019-04-22T15:30:07.569Z,27.40
2019-04-22T15:32:57.247Z,27.50
2019-04-22T15:35:47.234Z,27.50
2019-04-22T15:38:36.505Z,27.20
2019-04-22T15:41:25.457Z,27.10
2019-04-22T15:44:13.751Z,27.00
2019-04-22T15:47:02.793Z,27.10
2019-04-22T15:49:52.186Z,27.20
2019-04-22T15:52:47.904Z,27.30
2019-04-22T15:55:30.490Z,27.40
2019-04-22T15:58:19.743Z,27.50
2019-04-22T16:01:15.136Z,27.50
2019-04-22T16:03:58.707Z,27.50
2019-04-22T16:06:49.291Z,27.70
2019-04-22T16:09:39.356Z,27.90
2019-04-22T16:12:35.974Z,27.80
2019-04-22T16:15:20.319Z,27.70
2019-04-22T16:18:14.609Z,27.70
2019-04-22T16:21:02.762Z,27.60
2019-04-22T16:23:58.666Z,27.40
2019-04-22T16:26:48.551Z,27.30
2019-04-22T16:29:37.210Z,26.90
2019-04-22T16:32:27.624Z,26.70
2019-04-22T16:35:16.862Z,26.50
2019-04-22T16:38:06.827Z,26.60
2019-04-22T16:40:56.734Z,26.60
2019-04-22T16:43:46.684Z,26.50
2019-04-22T16:46:35.066Z,26.50
2019-04-22T16:49:23.581Z,26.50
2019-04-22T16:52:12.221Z,26.40
2019-04-22T16:55:00.976Z,26.30
2019-04-22T16:57:49.369Z,26.20
2019-04-22T17:00:38.496Z,25.90
2019-04-22T17:03:40.690Z,25.70
2019-04-22T17:06:31.798Z,25.70
2019-04-22T17:09:21.525Z,25.70
2019-04-22T17:12:09.987Z,25.70
2019-04-22T17:15:02.769Z,25.70
2019-04-22T17:17:49.403Z,25.80
2019-04-22T17:20:37.716Z,25.70
2019-04-22T17:23:25.948Z,25.80
2019-04-22T17:26:14.799Z,25.70
2019-04-22T17:29:06.294Z,25.60
2019-04-22T17:31:58.363Z,25.50
2019-04-22T17:34:43.415Z,25.50
2019-04-22T17:37:35.495Z,25.50
2019-04-22T17:40:39.485Z,25.40
2019-04-22T17:43:40.556Z,25.40
2019-04-22T17:46:32.411Z,25.40
2019-04-22T17:49:48.566Z,25.30
2019-04-22T17:52:24.952Z,25.10
2019-04-22T17:55:12.747Z,25.00
2019-04-22T17:58:08.108Z,24.80
2019-04-22T18:00:56.759Z,24.60
2019-04-22T18:03:31.095Z,24.40
2019-04-22T18:06:46.950Z,24.20
2019-04-22T18:09:41.766Z,24.00
2019-04-22T18:12:27.625Z,23.90
2019-04-22T18:15:11.466Z,23.70
2019-04-22T18:18:03.507Z,23.50
2019-04-22T18:20:39.452Z,23.30
2019-04-22T18:23:22.669Z,23.10
2019-04-22T18:26:26.192Z,22.90
2019-04-22T18:29:19.079Z,22.70
2019-04-22T18:31:55.678Z,22.60
2019-04-22T18:34:45.602Z,22.50
2019-04-22T18:37:50.052Z,22.30
2019-04-22T18:40:36.296Z,22.10
2019-04-22T18:43:31.116Z,22.00
2019-04-22T18:46:19.048Z,21.80
2019-04-22T18:49:00.520Z,21.70
2019-04-22T18:52:01.132Z,21.60
2019-04-22T18:54:55.359Z,21.50
2019-04-22T18:57:34.028Z,21.40
2019-04-22T19:00:14.597Z,21.30
2019-04-22T19:03:13.227Z,21.10
2019-04-22T19:06:24.778Z,21.00
2019-04-22T19:09:10.662Z,20.90
2019-04-22T19:12:09.052Z,20.80
2019-04-22T19:14:49.978Z,20.70
2019-04-22T19:17:44.304Z,20.70
2019-04-22T19:20:28.678Z,20.60
2019-04-22T19:23:12.909Z,20.60
2019-04-22T19:25:58.609Z,20.50
2019-04-22T19:28:52.357Z,20.40
2019-04-22T19:31:43.795Z,20.30
2019-04-22T19:34:32.272Z,20.30
2019-04-22T19:37:17.341Z,20.20
2019-04-22T19:40:17.596Z,20.20
2019-04-22T19:43:02.464Z,20.10
2019-04-22T19:45:48.996Z,20.00
2019-04-22T19:48:57.989Z,20.00
2019-04-22T19:51:44.069Z,20.00
2019-04-22T19:54:17.415Z,19.90
2019-04-22T19:57:03.571Z,19.90
2019-04-22T20:00:01.583Z,19.80
2019-04-22T20:03:03.290Z,19.70
2019-04-22T20:05:58.108Z,19.60
2019-04-22T20:08:41.280Z,19.60
2019-04-22T20:11:34.183Z,19.50
2019-04-22T20:14:22.979Z,19.50
2019-04-22T20:17:07.552Z,19.50
2019-04-22T20:20:06.528Z,19.50
2019-04-22T20:22:44.484Z,19.50
2019-04-22T20:25:34.860Z,19.50
2019-04-22T20:28:32.654Z,19.40
2019-04-22T20:31:18.910Z,19.40
2019-04-22T20:34:14.729Z,19.30
2019-04-22T20:37:03.139Z,19.30
2019-04-22T20:39:57.203Z,19.30
2019-04-22T20:42:45.023Z,19.20
2019-04-22T20:45:30.915Z,19.20
2019-04-22T20:48:09.287Z,19.10
2019-04-22T20:51:12.731Z,19.10
2019-04-22T20:54:04.246Z,19.00
2019-04-22T20:56:45.196Z,19.00
2019-04-22T20:59:38.730Z,18.90
2019-04-22T21:02:25.207Z,18.90
2019-04-22T21:05:08.408Z,18.90
2019-04-22T21:08:11.374Z,18.90
2019-04-22T21:10:53.476Z,18.90
2019-04-22T21:13:48.051Z,18.80
2019-04-22T21:16:40.017Z,18.80
2019-04-22T21:19:37.857Z,18.80
2019-04-22T21:22:24.478Z,18.80
2019-04-22T21:25:01.985Z,18.70
2019-04-22T21:27:57.989Z,18.60
2019-04-22T21:30:51.001Z,18.50
2019-04-22T21:33:31.430Z,18.50
2019-04-22T21:36:35.255Z,18.40
2019-04-22T21:39:12.479Z,18.40
2019-04-22T21:42:09.478Z,18.30
2019-04-22T21:44:54.118Z,18.20
2019-04-22T21:47:57.597Z,18.10
2019-04-22T21:53:31.606Z,18.00
2019-04-22T21:56:38.131Z,18.00
2019-04-22T21:59:06.815Z,17.90
2019-04-22T22:01:58.640Z,17.90
2019-04-22T22:04:44.485Z,17.80
2019-04-22T22:07:21.447Z,17.80
2019-04-22T22:10:27.103Z,17.70
2019-04-22T22:13:20.066Z,17.70
2019-04-22T22:16:05.178Z,17.60
2019-04-22T22:19:00.805Z,17.50
2019-04-22T22:21:51.146Z,17.50
2019-04-22T22:24:42.129Z,17.50
2019-04-22T22:27:28.103Z,17.40
2019-04-22T22:30:39.956Z,17.30
2019-04-22T22:33:05.759Z,17.30
2019-04-22T22:35:57.129Z,17.20
2019-04-22T22:38:41.612Z,17.10
2019-04-22T22:41:14.076Z,17.10
2019-04-22T22:44:13.097Z,17.00
2019-04-22T22:47:08.403Z,17.00
2019-04-22T22:50:03.046Z,16.90
2019-04-22T22:53:00.867Z,16.90
2019-04-22T22:55:39.873Z,16.90
2019-04-22T22:58:34.297Z,16.80
2019-04-22T23:01:23.509Z,16.80
2019-04-22T23:04:32.840Z,16.80
2019-04-22T23:07:24.038Z,16.70
2019-04-22T23:10:09.598Z,16.70
2019-04-22T23:13:06.774Z,16.60
2019-04-22T23:15:42.184Z,16.50
2019-04-22T23:18:17.429Z,16.50
2019-04-22T23:21:08.258Z,16.40
2019-04-22T23:24:12.897Z,16.30
2019-04-22T23:27:04.306Z,16.20
2019-04-22T23:30:06.389Z,16.20
2019-04-22T23:33:05.908Z,16.10
2019-04-22T23:35:56.616Z,16.00
2019-04-22T23:38:50.507Z,16.10
2019-04-22T23:41:45.833Z,16.00
2019-04-22T23:44:30.831Z,15.90
2019-04-22T23:47:16.023Z,15.90
2019-04-22T23:50:09.646Z,15.90
2019-04-22T23:52:59.517Z,15.80
2019-04-22T23:55:50.581Z,15.70
